Cannon Ball, North Dakota
Current Conditions -  °F | °C
As of 9:15 PM on Monday 22 Dec 2014 (Local Time) from K7L2 Reporting Station
Light Snow Light Snow  
Wind Chill: 19°   Ceiling: 800
Heat Index: 30°   Visibility: 4mi
Dew Point: 30°   Wind: 15mph
Humidity: 100%   Direction: 350°N
Pressure: 29.68"   Gusts: 21mph
Location:  46.4°N, 100.6°W
Report Text: K7L2 230415Z AUTO 35013G18KT 4SM -SN BKN008 BKN014 OVC055 M01/M01 A2968 RMK AO2
Loading
Personal Weather Stations






























Interactive Weather Map New forecast layout! Learn more

10-Day Weather Forecast

Advertisements
Track Severe Weather on mobile